This is the latest recevied weather packets stored in our database for station/object WY7ATH-2. If no packets are shown the sender has not sent any weather packets the latest 10 day(s).
| Time | Temp. | Humidity | Pressure | Rain* | Wind** | Luminosity | Snow |
|---|---|---|---|---|---|---|---|
| 1777604025 | 2.22° C | - | - | 3.05 mm | 0 m/s | - | - |
| 1777601634 | 2.22° C | - | - | 3.05 mm | 0 m/s | - | - |
| 1777586697 | 5.56° C | - | - | 12.95 mm | 0 m/s | - | - |
| 1777584906 | 6.11° C | - | - | 11.94 mm | 0 m/s | - | - |
| 1777584306 | 6.11° C | - | - | 11.94 mm | 0 m/s | - | - |
| 1777581918 | 5.56° C | - | - | 10.67 mm | 0 m/s | - | - |
| 1777581325 | 5.56° C | - | - | 10.67 mm | 0 m/s | - | - |
| 1777577736 | 3.89° C | - | - | 8.64 mm | 0 m/s | - | - |
| 1777572356 | 5° C | - | - | 12.95 mm | 0 m/s | - | - |
| 1777571759 | 5° C | - | - | 8.13 mm | 0 m/s | - | - |
| 1777570565 | 3.89° C | - | - | 8.13 mm | 0 m/s | - | - |
| 1777569368 | 3.33° C | - | - | 8.13 mm | 0 m/s | - | - |
| 1777549650 | -0.56° C | - | - | 0 mm | 0 m/s | - | - |
| 1777547855 | -0.56° C | - | - | 0 mm | 0 m/s | - | - |
| 1777546662 | -0.56° C | - | - | 0 mm | 0 m/s | - | - |
| 1777546065 | -0.56° C | - | - | 0 mm | 0 m/s | - | - |
| 1777544270 | -0.56° C | - | - | 0 mm | 0 m/s | - | - |
| 1777543674 | -0.56° C | - | - | 0 mm | 0 m/s | - | - |
| 1777540685 | -0.56° C | - | - | 0 mm | 0 m/s | - | - |
| 1777540089 | -0.56° C | - | - | 0 mm | 0 m/s | - | - |
| 1777539492 | -0.56° C | - | - | 0 mm | 0 m/s | - | - |
| 1777537698 | -1.11° C | - | - | 0 mm | 0 m/s | - | - |
| 1777537101 | -1.11° C | - | - | 0 mm | 0 m/s | - | - |
| 1777536504 | -1.11° C | - | - | 0 mm | 0 m/s | - | - |
| 1777535907 | -1.67° C | - | - | 0 mm | 0 m/s | - | - |
* Rain latest hour (hover to see other rain measurements)
** Current wind speed in m/s (hover to see current wind gust speed)